createdAt,value
2018-04-25T00:01:21.504Z,49.62
2018-04-25T00:03:47.793Z,50.04
2018-04-25T00:06:14.073Z,49.36
2018-04-25T00:08:40.362Z,49.48
2018-04-25T00:11:06.610Z,49.51
2018-04-25T00:13:32.887Z,49.16
2018-04-25T00:15:59.255Z,49.15
2018-04-25T00:18:25.534Z,48.98
2018-04-25T00:20:51.778Z,48.61
2018-04-25T00:23:18.071Z,48.38
2018-04-25T00:25:44.335Z,48.24
2018-04-25T00:28:10.610Z,48.21
2018-04-25T00:30:36.847Z,48.41
2018-04-25T00:33:03.100Z,48.56
2018-04-25T00:35:29.379Z,48.70
2018-04-25T00:37:55.624Z,48.97
2018-04-25T00:40:21.898Z,48.99
2018-04-25T00:42:48.203Z,49.10
2018-04-25T00:45:14.504Z,49.29
2018-04-25T00:47:40.798Z,49.11
2018-04-25T00:50:07.151Z,49.26
2018-04-25T00:52:33.427Z,49.24
2018-04-25T00:54:59.695Z,49.21
2018-04-25T00:57:26.019Z,48.91
2018-04-25T00:59:52.290Z,48.88
2018-04-25T01:02:18.588Z,48.65
2018-04-25T01:04:44.874Z,48.15
2018-04-25T01:07:11.175Z,48.45
2018-04-25T01:09:37.444Z,48.26
2018-04-25T01:12:03.792Z,48.18
2018-04-25T01:14:30.060Z,47.95
2018-04-25T01:16:56.322Z,47.83
2018-04-25T01:19:22.623Z,47.53
2018-04-25T01:21:49.710Z,49.80
2018-04-25T01:24:16.004Z,48.82
2018-04-25T01:26:42.287Z,48.92
2018-04-25T01:29:08.599Z,48.48
2018-04-25T01:31:48.081Z,50.11
2018-04-25T01:34:18.363Z,51.03
2018-04-25T01:36:56.395Z,49.63
2018-04-25T01:39:43.247Z,52.03
2018-04-25T01:42:21.554Z,49.85
2018-04-25T01:44:51.818Z,47.50
2018-04-25T01:47:33.966Z,47.48
2018-04-25T04:21:19.535Z,50.33
2018-04-25T04:23:45.863Z,50.22
2018-04-25T04:26:12.112Z,50.05
2018-04-25T04:28:38.375Z,49.96
2018-04-25T04:31:04.591Z,50.00
2018-04-25T04:33:30.811Z,50.06
2018-04-25T04:35:57.054Z,49.82
2018-04-25T04:38:23.271Z,49.49
2018-04-25T04:40:49.485Z,49.66
2018-04-25T04:43:15.753Z,49.29
2018-04-25T04:45:41.978Z,49.24
2018-04-25T04:48:08.208Z,48.91
2018-04-25T04:50:34.466Z,49.13
2018-04-25T04:53:00.693Z,48.94
2018-04-25T04:55:26.919Z,48.53
2018-04-25T04:57:53.170Z,48.49
2018-04-25T05:00:19.399Z,48.40
2018-04-25T05:02:45.639Z,48.43
2018-04-25T05:05:11.902Z,48.41
2018-04-25T05:07:38.124Z,48.21
2018-04-25T05:10:04.376Z,47.78
2018-04-25T05:12:30.630Z,47.80
2018-04-25T05:14:56.934Z,47.73
2018-04-25T05:17:23.182Z,47.69
2018-04-25T05:19:49.444Z,47.48
2018-04-25T05:22:15.703Z,47.50
2018-04-25T05:24:41.977Z,47.31
2018-04-25T05:27:08.218Z,47.36
2018-04-25T05:29:34.448Z,46.40
2018-04-25T05:32:00.740Z,46.43
2018-04-25T05:34:26.983Z,46.45
2018-04-25T05:36:53.219Z,46.36
2018-04-25T05:39:19.444Z,46.68
2018-04-25T05:41:45.708Z,46.66
2018-04-25T05:44:11.934Z,46.80
2018-04-25T05:46:38.183Z,46.88
2018-04-25T05:49:04.447Z,47.24
2018-04-25T05:51:30.719Z,46.79
2018-04-25T05:53:56.951Z,46.36
2018-04-25T05:56:23.203Z,46.13
2018-04-25T05:58:49.439Z,46.63
2018-04-25T06:01:15.667Z,46.78
2018-04-25T06:03:41.918Z,46.98
2018-04-25T06:06:08.135Z,47.12
2018-04-25T06:08:34.362Z,46.67
2018-04-25T06:11:00.615Z,46.29
2018-04-25T06:13:26.835Z,46.54
2018-04-25T06:15:53.099Z,46.05
2018-04-25T06:18:19.363Z,46.73
2018-04-25T06:20:45.591Z,46.74
2018-04-25T06:23:11.842Z,46.25
2018-04-25T06:25:38.097Z,46.68
2018-04-25T06:28:04.322Z,46.42
2018-04-25T06:30:30.550Z,46.25
2018-04-25T06:32:56.807Z,45.96
2018-04-25T06:35:23.057Z,45.44
2018-04-25T06:37:49.304Z,45.28
2018-04-25T06:40:15.559Z,45.23
2018-04-25T06:42:41.787Z,44.81
2018-04-25T06:45:08.044Z,44.89
2018-04-25T06:47:34.315Z,44.21
2018-04-25T06:50:00.539Z,44.37
2018-04-25T06:52:26.767Z,44.62
2018-04-25T06:54:53.023Z,44.47
2018-04-25T06:57:19.263Z,43.58
2018-04-25T06:59:45.496Z,43.60
2018-04-25T07:02:11.751Z,43.49
2018-04-25T07:04:37.993Z,43.53
2018-04-25T07:07:04.242Z,42.93
2018-04-25T07:09:30.509Z,43.19
2018-04-25T07:11:56.743Z,42.71
2018-04-25T07:14:22.975Z,42.07
2018-04-25T07:16:49.233Z,41.96
2018-04-25T07:19:15.510Z,41.78
2018-04-25T07:21:41.739Z,41.30
2018-04-25T07:24:07.998Z,41.67
2018-04-25T07:26:34.235Z,41.83
2018-04-25T07:29:00.464Z,41.55
2018-04-25T07:31:26.729Z,41.13
2018-04-25T07:33:52.968Z,41.25
2018-04-25T07:36:19.201Z,41.55
2018-04-25T07:38:45.467Z,42.22
2018-04-25T07:41:11.698Z,42.29
2018-04-25T07:43:37.927Z,42.51
2018-04-25T07:46:04.195Z,42.76
2018-04-25T07:48:30.458Z,42.48
2018-04-25T07:50:56.688Z,42.11
2018-04-25T07:53:22.946Z,42.10
2018-04-25T07:55:49.191Z,42.16
2018-04-25T07:58:15.423Z,41.89
2018-04-25T08:00:41.699Z,41.09
2018-04-25T08:03:08.894Z,41.19
2018-04-25T08:05:35.122Z,41.14
2018-04-25T08:08:01.390Z,40.42
2018-04-25T08:10:27.647Z,39.70
2018-04-25T08:13:06.139Z,39.66
2018-04-25T08:15:44.743Z,38.60
2018-04-25T08:18:23.333Z,37.10
2018-04-25T08:34:14.463Z,33.32
2018-04-25T08:36:40.737Z,33.75
2018-04-25T08:39:06.995Z,32.08
2018-04-25T08:41:33.250Z,33.99
2018-04-25T08:43:59.480Z,33.69
2018-04-25T08:46:25.712Z,32.32
2018-04-25T08:48:52.067Z,32.71
2018-04-25T08:51:18.291Z,32.24
2018-04-25T08:53:44.522Z,31.45
2018-04-25T08:56:10.802Z,31.58
2018-04-25T08:58:37.027Z,32.46
2018-04-25T09:01:03.275Z,34.02
2018-04-25T09:03:29.624Z,32.32
2018-04-25T09:05:55.879Z,33.96
2018-04-25T09:08:22.103Z,35.00
2018-04-25T09:10:48.366Z,35.93
2018-04-25T09:13:14.662Z,36.96
2018-04-25T09:15:40.874Z,38.29
2018-04-25T09:18:07.143Z,38.93
2018-04-25T09:20:33.407Z,39.82
2018-04-25T09:22:59.643Z,40.13
2018-04-25T09:25:25.903Z,40.94
2018-04-25T09:27:52.134Z,40.01
2018-04-25T09:30:18.366Z,39.38
2018-04-25T09:32:44.631Z,39.83
2018-04-25T09:35:10.875Z,39.39
2018-04-25T09:37:37.115Z,39.73
2018-04-25T09:40:03.427Z,39.72
2018-04-25T09:42:29.655Z,38.48
2018-04-25T09:44:55.895Z,38.38
2018-04-25T09:47:22.163Z,38.05
2018-04-25T09:49:48.400Z,38.45
2018-04-25T09:52:14.631Z,38.42
2018-04-25T09:54:40.902Z,38.61
2018-04-25T09:57:07.147Z,39.66
2018-04-25T09:59:33.379Z,40.03
2018-04-25T10:02:02.591Z,39.05
2018-04-25T10:04:28.866Z,38.51
2018-04-25T10:06:55.099Z,38.96
2018-04-25T10:09:21.366Z,37.69
2018-04-25T10:11:47.625Z,37.13
2018-04-25T10:14:13.867Z,36.17
2018-04-25T10:16:40.137Z,34.09
2018-04-25T10:19:06.379Z,34.27
2018-04-25T10:21:32.652Z,34.57
2018-04-25T10:23:58.919Z,33.50
2018-04-25T10:26:25.187Z,34.86
2018-04-25T10:28:51.433Z,34.42
2018-04-25T10:31:17.783Z,34.98
2018-04-25T10:33:44.016Z,34.34
2018-04-25T10:36:10.259Z,34.37
2018-04-25T10:38:36.531Z,33.86
2018-04-25T10:41:09.898Z,33.13
2018-04-25T10:43:36.163Z,32.06
2018-04-25T10:46:02.411Z,33.14
2018-04-25T10:48:28.639Z,34.64
2018-04-25T10:50:54.910Z,35.11
2018-04-25T10:53:21.147Z,34.36
2018-04-25T10:55:47.382Z,34.26
2018-04-25T10:58:13.649Z,35.02
2018-04-25T11:00:39.893Z,35.71
2018-04-25T11:03:06.128Z,35.21
2018-04-25T11:05:32.387Z,35.40
2018-04-25T11:07:58.623Z,35.67
2018-04-25T11:10:24.871Z,35.44
2018-04-25T11:12:51.134Z,35.45
2018-04-25T11:15:17.366Z,34.55
2018-04-25T11:17:43.606Z,35.24
2018-04-25T11:20:09.926Z,34.82
2018-04-25T11:22:36.159Z,32.71
2018-04-25T11:25:02.403Z,32.15
2018-04-25T11:27:28.675Z,33.13
2018-04-25T11:29:54.902Z,33.65
2018-04-25T11:32:21.139Z,33.73
2018-04-25T11:34:47.403Z,34.90
2018-04-25T11:37:13.643Z,34.38
2018-04-25T11:39:39.877Z,34.93
2018-04-25T11:42:06.144Z,34.40
2018-04-25T11:44:32.383Z,33.56
2018-04-25T11:46:58.616Z,30.24
2018-04-25T11:49:24.870Z,30.70
2018-04-25T11:51:51.090Z,30.91
2018-04-25T11:54:17.329Z,29.65
2018-04-25T11:56:43.587Z,27.33
2018-04-25T11:59:09.819Z,25.44
2018-04-25T12:01:36.052Z,24.49
2018-04-25T12:04:02.386Z,24.38
2018-04-25T12:06:28.623Z,23.54
2018-04-25T12:08:54.850Z,23.64
2018-04-25T12:11:21.110Z,25.36
2018-04-25T12:13:47.399Z,24.31
2018-04-25T12:16:13.650Z,24.20
2018-04-25T12:18:39.979Z,25.22
2018-04-25T12:21:06.195Z,26.28
2018-04-25T12:23:32.430Z,24.43
2018-04-25T12:25:58.691Z,23.47
2018-04-25T12:28:24.925Z,23.29
2018-04-25T12:30:51.155Z,23.32
2018-04-25T12:33:17.419Z,23.46
2018-04-25T12:35:43.712Z,26.48
2018-04-25T12:38:09.908Z,28.33
2018-04-25T12:40:36.167Z,29.23
2018-04-25T12:43:02.414Z,29.79
2018-04-25T12:45:28.646Z,30.96
2018-04-25T12:47:54.906Z,30.76
2018-04-25T12:50:21.134Z,31.58
2018-04-25T12:52:47.371Z,32.07
2018-04-25T12:55:13.639Z,32.15
2018-04-25T12:57:39.956Z,32.54
2018-04-25T13:00:06.207Z,32.73
2018-04-25T13:02:39.435Z,33.27
2018-04-25T13:05:05.681Z,33.36
2018-04-25T13:07:31.912Z,33.12
2018-04-25T13:09:58.180Z,33.14
2018-04-25T13:12:24.407Z,32.90
2018-04-25T13:14:50.644Z,32.50
2018-04-25T13:17:16.930Z,32.21
2018-04-25T13:19:43.163Z,30.34
2018-04-25T13:22:09.409Z,30.92
2018-04-25T13:24:35.683Z,31.61
2018-04-25T13:27:01.923Z,32.54
2018-04-25T13:29:28.199Z,33.39
2018-04-25T13:31:54.465Z,33.59
2018-04-25T13:34:20.691Z,34.52
2018-04-25T13:36:46.927Z,34.53
2018-04-25T13:39:13.188Z,35.09
2018-04-25T13:41:39.424Z,36.19
2018-04-25T13:44:05.662Z,36.10
2018-04-25T13:46:31.965Z,36.89
2018-04-25T13:48:58.209Z,37.51
2018-04-25T13:51:24.438Z,37.73
2018-04-25T13:53:50.696Z,39.25
2018-04-25T13:56:16.935Z,40.32
2018-04-25T13:58:43.183Z,40.98
2018-04-25T14:01:09.439Z,44.60
2018-04-25T14:03:35.671Z,49.44
2018-04-25T14:06:01.933Z,52.03
2018-04-25T14:08:28.178Z,55.85
2018-04-25T14:10:54.439Z,56.63
2018-04-25T14:13:20.671Z,58.40
2018-04-25T14:15:46.936Z,58.70
2018-04-25T14:18:13.160Z,58.27
2018-04-25T14:20:39.423Z,58.02
2018-04-25T14:23:05.688Z,56.11
2018-04-25T14:25:31.911Z,55.74
2018-04-25T14:27:58.131Z,53.73
2018-04-25T14:30:24.480Z,52.62
2018-04-25T14:32:50.655Z,52.65
2018-04-25T14:35:16.915Z,52.68
2018-04-25T14:37:43.170Z,52.56
2018-04-25T14:40:09.394Z,51.61
2018-04-25T14:42:35.623Z,49.23
2018-04-25T14:45:01.892Z,47.34
2018-04-25T14:47:28.114Z,39.27
2018-04-25T14:49:54.343Z,35.35
2018-04-25T14:52:20.598Z,33.16
2018-04-25T14:54:46.827Z,36.99
2018-04-25T14:57:13.075Z,39.44
2018-04-25T14:59:39.347Z,40.11
2018-04-25T15:02:05.597Z,38.04
2018-04-25T15:04:31.848Z,40.82
2018-04-25T15:06:58.106Z,42.83
2018-04-25T15:09:24.344Z,44.24
2018-04-25T15:11:50.590Z,45.28
2018-04-25T15:14:16.851Z,46.12
2018-04-25T15:16:43.268Z,46.82
2018-04-25T15:19:09.682Z,48.02
2018-04-25T15:21:35.999Z,48.48
2018-04-25T15:24:02.252Z,48.30
2018-04-25T15:26:28.519Z,46.29
2018-04-25T15:28:54.774Z,47.98
2018-04-25T15:31:21.003Z,47.97
2018-04-25T15:33:47.226Z,48.22
2018-04-25T15:36:13.563Z,48.03
2018-04-25T15:38:39.756Z,48.24
2018-04-25T15:41:05.983Z,48.74
2018-04-25T15:43:32.250Z,49.41
2018-04-25T15:45:58.611Z,49.82
2018-04-25T15:48:24.875Z,49.52
2018-04-25T15:50:51.179Z,50.75
2018-04-25T15:53:17.456Z,50.19
2018-04-25T15:55:43.740Z,50.08
2018-04-25T15:58:10.026Z,50.01
2018-04-25T16:00:36.259Z,50.38
2018-04-25T16:03:02.733Z,51.30
2018-04-25T16:05:29.005Z,54.51
2018-04-25T16:07:56.330Z,56.48
2018-04-25T16:10:22.632Z,56.84
2018-04-25T16:12:48.891Z,57.78
2018-04-25T16:15:15.170Z,58.48
2018-04-25T16:17:48.306Z,59.20
2018-04-25T16:20:14.555Z,60.24
2018-04-25T16:22:40.809Z,60.82
2018-04-25T16:25:07.098Z,60.84
2018-04-25T16:27:33.318Z,62.09
2018-04-25T16:29:59.559Z,61.53
2018-04-25T16:32:25.835Z,61.47
2018-04-25T16:34:52.419Z,61.82
2018-04-25T16:37:18.707Z,61.99
2018-04-25T16:39:44.962Z,62.11
2018-04-25T16:42:11.186Z,61.49
2018-04-25T16:44:37.488Z,62.22
2018-04-25T16:47:03.763Z,62.02
2018-04-25T16:49:30.343Z,61.56
2018-04-25T16:51:56.753Z,61.43
2018-04-25T16:54:23.018Z,61.97
2018-04-25T16:56:49.440Z,61.63
2018-04-25T16:59:15.674Z,60.75
2018-04-25T17:01:42.079Z,60.19
2018-04-25T17:04:08.311Z,60.26
2018-04-25T17:06:34.834Z,57.68
2018-04-25T17:09:01.268Z,56.97
2018-04-25T17:11:27.727Z,55.83
2018-04-25T17:13:54.015Z,55.67
2018-04-25T17:16:20.290Z,55.91
2018-04-25T17:18:46.686Z,56.78
2018-04-25T17:21:12.966Z,55.56
2018-04-25T17:23:39.255Z,56.62
2018-04-25T17:26:05.812Z,57.06
2018-04-25T17:28:32.054Z,57.29
2018-04-25T17:30:58.314Z,57.91
2018-04-25T17:33:24.862Z,58.39
2018-04-25T17:35:51.090Z,59.12
2018-04-25T17:38:17.355Z,59.10
2018-04-25T17:40:43.925Z,59.23
2018-04-25T17:43:10.167Z,59.65
2018-04-25T17:45:36.626Z,60.74
2018-04-25T17:48:02.918Z,61.44
2018-04-25T17:50:29.142Z,61.96
2018-04-25T17:52:55.395Z,62.14
2018-04-25T17:55:21.966Z,62.37
2018-04-25T17:57:48.215Z,62.62
2018-04-25T18:00:14.495Z,62.13
2018-04-25T18:02:40.719Z,62.40
2018-04-25T18:05:06.959Z,62.73
2018-04-25T18:07:33.323Z,63.54
2018-04-25T18:09:59.569Z,62.88
2018-04-25T18:12:25.798Z,62.37
2018-04-25T18:14:52.067Z,62.27
2018-04-25T18:17:18.319Z,62.29
2018-04-25T18:19:44.539Z,62.53
2018-04-25T18:22:10.800Z,63.17
2018-04-25T18:24:37.081Z,63.07
2018-04-25T18:27:03.354Z,63.60
2018-04-25T18:29:29.646Z,63.48
2018-04-25T18:31:55.944Z,63.58
2018-04-25T18:34:22.199Z,63.32
2018-04-25T18:36:48.643Z,63.17
2018-04-25T18:39:14.987Z,62.80
2018-04-25T18:41:41.258Z,62.95
2018-04-25T18:44:07.625Z,62.13
2018-04-25T18:46:33.946Z,61.70
2018-04-25T18:49:00.535Z,60.95
2018-04-25T18:51:26.810Z,60.72
2018-04-25T18:53:53.035Z,60.04
2018-04-25T18:56:19.705Z,60.74
2018-04-25T18:58:46.251Z,61.15
2018-04-25T19:01:12.554Z,60.75
2018-04-25T19:03:38.871Z,60.55
2018-04-25T19:06:05.192Z,60.35
2018-04-25T19:08:31.480Z,60.18
2018-04-25T19:10:57.803Z,60.06
2018-04-25T19:13:24.226Z,60.20
2018-04-25T19:15:50.660Z,60.62
2018-04-25T19:18:16.897Z,59.44
2018-04-25T19:20:43.393Z,59.17
2018-04-25T19:23:09.639Z,58.85
2018-04-25T19:25:36.144Z,58.66
2018-04-25T19:28:02.444Z,58.18
2018-04-25T19:30:28.659Z,58.40
2018-04-25T19:32:54.922Z,58.21
2018-04-25T19:35:21.182Z,58.47
2018-04-25T19:37:47.440Z,58.29
2018-04-25T19:40:13.969Z,58.42
2018-04-25T19:42:40.237Z,58.73
2018-04-25T19:45:06.653Z,58.92
2018-04-25T19:47:33.132Z,59.35
2018-04-25T19:49:59.466Z,58.89
2018-04-25T19:52:25.768Z,59.21
2018-04-25T19:54:52.078Z,59.28
2018-04-25T19:57:18.425Z,59.15
2018-04-25T19:59:44.683Z,60.30
2018-04-25T20:02:10.912Z,60.64
2018-04-25T20:04:37.338Z,60.42
2018-04-25T20:07:03.678Z,60.46
2018-04-25T20:09:29.903Z,60.82
2018-04-25T20:11:56.425Z,61.47
2018-04-25T20:14:22.674Z,61.33
2018-04-25T20:16:49.036Z,60.90
2018-04-25T20:19:15.385Z,61.51
2018-04-25T20:21:41.838Z,61.78
2018-04-25T20:24:08.200Z,61.16
2018-04-25T20:26:34.474Z,60.72
2018-04-25T20:29:00.935Z,60.87
2018-04-25T20:31:27.310Z,60.79
2018-04-25T20:33:53.744Z,61.07
2018-04-25T20:36:20.045Z,61.08
2018-04-25T20:38:46.431Z,60.84
2018-04-25T20:41:12.690Z,60.25
2018-04-25T20:43:39.169Z,60.06
2018-04-25T20:46:05.708Z,60.05
2018-04-25T20:48:32.130Z,60.11
2018-04-25T20:50:58.530Z,60.54
2018-04-25T20:53:25.016Z,59.90
2018-04-25T20:55:51.278Z,60.03
2018-04-25T20:58:17.646Z,59.83
2018-04-25T21:00:44.019Z,60.61
2018-04-25T21:03:10.686Z,60.97
2018-04-25T21:05:37.288Z,60.92
2018-04-25T21:08:03.783Z,60.68
2018-04-25T21:10:30.406Z,61.55
2018-04-25T21:12:56.670Z,61.42
2018-04-25T21:15:23.053Z,61.71
2018-04-25T21:17:49.360Z,61.97
2018-04-25T21:20:15.756Z,61.77
2018-04-25T21:22:41.999Z,62.65
2018-04-25T21:25:08.275Z,63.03
2018-04-25T21:27:34.833Z,62.69
2018-04-25T21:30:01.299Z,62.21
2018-04-25T21:32:27.891Z,61.64
2018-04-25T21:34:54.163Z,63.43
2018-04-25T21:37:20.556Z,62.83
2018-04-25T21:39:46.819Z,63.42
2018-04-25T21:42:13.338Z,63.82
2018-04-25T21:44:39.687Z,64.67
2018-04-25T21:47:05.986Z,65.11
2018-04-25T21:49:32.395Z,65.41
2018-04-25T21:51:58.636Z,65.88
2018-04-25T21:54:25.163Z,65.72
2018-04-25T21:56:51.452Z,65.87
2018-04-25T21:59:17.981Z,66.15
2018-04-25T22:01:44.339Z,66.73
2018-04-25T22:04:10.709Z,66.25
2018-04-25T22:06:36.965Z,66.21
2018-04-25T22:09:03.324Z,65.76
2018-04-25T22:11:30.991Z,66.35
2018-04-25T22:13:57.500Z,66.60
2018-04-25T22:16:23.841Z,67.32
2018-04-25T22:18:50.167Z,68.28
2018-04-25T22:21:16.432Z,68.16
2018-04-25T22:23:42.737Z,67.33
2018-04-25T22:26:09.102Z,66.88
2018-04-25T22:28:35.375Z,66.65
2018-04-25T22:31:02.856Z,65.42
2018-04-25T22:33:29.141Z,65.76
2018-04-25T22:35:55.463Z,65.85
2018-04-25T22:38:21.835Z,65.50
2018-04-25T22:40:48.156Z,65.71
2018-04-25T22:43:14.642Z,65.18
2018-04-25T22:45:40.968Z,65.36
2018-04-25T22:48:07.455Z,64.25
2018-04-25T22:50:33.718Z,64.59
2018-04-25T22:53:00.021Z,64.26
2018-04-25T22:55:27.492Z,64.67
2018-04-25T22:57:53.776Z,64.15
2018-04-25T23:00:20.187Z,63.87
2018-04-25T23:02:46.563Z,62.95
2018-04-25T23:05:13.048Z,63.29
2018-04-25T23:07:39.456Z,63.84
2018-04-25T23:10:05.719Z,63.87
2018-04-25T23:12:32.207Z,63.90
2018-04-25T23:14:58.508Z,63.83
2018-04-25T23:17:25.058Z,63.42
2018-04-25T23:19:51.374Z,63.53
2018-04-25T23:22:17.959Z,63.73
2018-04-25T23:24:44.304Z,63.56
2018-04-25T23:27:10.568Z,63.49
2018-04-25T23:29:36.986Z,64.06
2018-04-25T23:32:03.320Z,63.70
2018-04-25T23:34:29.576Z,63.72
2018-04-25T23:36:56.206Z,64.09
2018-04-25T23:39:22.809Z,63.92
2018-04-25T23:41:49.279Z,63.47
2018-04-25T23:44:15.566Z,63.81
2018-04-25T23:46:42.056Z,63.45
2018-04-25T23:49:08.313Z,64.27
2018-04-25T23:51:34.727Z,63.52
2018-04-25T23:54:01.059Z,63.87
2018-04-25T23:56:27.491Z,63.89
2018-04-25T23:58:53.812Z,63.39
